Willow Valley, Indiana
Current Conditions -  °F | °C
As of 12:15 AM on Saturday 29 Nov 2014 (Local Time) from KDCY Reporting Station
Clear Clear  
Wind Chill: 30°   Ceiling: Unl
Heat Index: 34°   Visibility: 10mi
Dew Point: 28°   Wind: 5mph
Humidity: 79%   Direction: 150°SSE
Pressure: 30"   Gusts: NA
Location:  38.6262°N, 86.7615°W
Report Text: KDCY 290615Z AUTO 15004KT 10SM CLR 01/M02 A3000 RMK AO2 T00111021
Loading
Personal Weather Stations






























Interactive Weather Map New forecast layout! Learn more

10-Day Weather Forecast

Advertisements
Track Severe Weather on mobile